Time;durP1;ratioP1;P1;durP2;ratioP2;P2;SDS_P1;SDS_P2;PMS_P1;PMS_P2;Temp;Humidity;BMP_temperature;BMP_pressure;BME280_temperature;BME280_humidity;BME280_pressure;Samples;Min_cycle;Max_cycle;Signal;HPM_P1;HPM_P2
2023/07/23 00:06:59;;;;;;;7.57;5.87;;;;;;;27.02;100.00;99720.47;30868392;28;20475;-75
2023/07/23 00:22:01;;;;;;;8.73;5.43;;;;;;;26.89;100.00;99720.50;30860309;28;20523;-73
2023/07/23 00:37:03;;;;;;;8.90;6.03;;;;;;;26.86;100.00;99705.63;30858369;28;20087;-74
2023/07/23 00:52:06;;;;;;;8.73;6.23;;;;;;;26.72;100.00;99693.75;30857808;28;20047;-73
2023/07/23 01:07:10;;;;;;;;;;;;;;;26.72;100.00;99671.50;30858471;28;20560;-73
2023/07/23 01:22:12;;;;;;;6.93;6.10;;;;;;;26.31;100.00;99674.16;30853998;28;20030;-73
2023/07/23 01:37:15;;;;;;;10.85;7.25;;;;;;;26.33;100.00;99672.34;30860984;28;20093;-74
2023/07/23 01:52:17;;;;;;;;;;;;;;;26.34;100.00;99667.53;30863191;28;20138;-73
2023/07/23 02:07:19;;;;;;;10.18;7.20;;;;;;;25.98;100.00;99676.31;30852315;28;19964;-73
2023/07/23 02:22:21;;;;;;;9.60;7.45;;;;;;;26.07;100.00;99661.97;30869312;28;20086;-73
2023/07/23 02:37:23;;;;;;;10.10;7.40;;;;;;;26.09;100.00;99642.72;30871211;28;20139;-74
2023/07/23 02:52:25;;;;;;;13.02;7.70;;;;;;;26.24;100.00;99642.16;30870568;28;21497;-75
2023/07/23 03:07:27;;;;;;;9.18;7.97;;;;;;;26.59;100.00;99652.06;30870053;28;20138;-74
2023/07/23 03:22:29;;;;;;;12.80;7.72;;;;;;;26.80;100.00;99647.25;30871016;28;20046;-74
2023/07/23 03:37:31;;;;;;;18.40;8.40;;;;;;;27.23;100.00;99671.09;30861827;28;20133;-73
2023/07/23 03:52:33;;;;;;;11.70;8.60;;;;;;;27.69;100.00;99704.91;30868613;28;20548;-73
2023/07/23 04:07:35;;;;;;;16.40;9.27;;;;;;;28.09;100.00;99747.97;30863222;28;20560;-73
2023/07/23 04:22:37;;;;;;;12.73;7.87;;;;;;;28.85;93.89;99775.56;30863924;28;20054;-73
2023/07/23 04:37:39;;;;;;;9.27;7.17;;;;;;;29.17;86.24;99767.47;30856747;28;20524;-74
2023/07/23 04:52:41;;;;;;;12.00;7.73;;;;;;;29.40;82.99;99767.53;30860975;28;20560;-73
2023/07/23 05:07:43;;;;;;;8.83;6.83;;;;;;;29.89;79.53;99766.41;30862690;28;20074;-74
2023/07/23 05:22:45;;;;;;;13.43;7.20;;;;;;;30.57;74.18;99757.16;30853281;28;20320;-74
2023/07/23 05:37:47;;;;;;;10.13;6.32;;;;;;;30.78;71.03;99763.22;30851993;28;20138;-73
2023/07/23 05:52:49;;;;;;;9.77;6.78;;;;;;;31.17;68.44;99780.63;30861867;28;20420;-74
2023/07/23 06:07:51;;;;;;;10.60;6.38;;;;;;;31.51;66.47;99797.59;30871764;28;20138;-73
2023/07/23 06:22:54;;;;;;;9.65;6.30;;;;;;;31.86;63.63;99797.72;30873953;28;20113;-75
2023/07/23 06:37:57;;;;;;;8.60;6.28;;;;;;;32.49;61.75;99814.16;30875810;28;20089;-73
2023/07/23 06:52:59;;;;;;;8.50;6.10;;;;;;;33.04;59.77;99807.34;30870537;28;20411;-78
2023/07/23 07:08:04;;;;;;;8.80;6.28;;;;;;;33.16;57.92;99820.28;30871392;28;20065;-73
2023/07/23 07:23:06;;;;;;;13.52;6.63;;;;;;;32.96;59.17;99823.56;30866514;28;20082;-74
2023/07/23 07:38:09;;;;;;;10.93;7.60;;;;;;;33.53;60.42;99829.53;30862533;28;20138;-76
2023/07/23 07:53:11;;;;;;;10.90;8.85;;;;;;;33.36;62.11;99821.16;30863143;28;20057;-74
2023/07/23 08:08:14;;;;;;;14.80;11.05;;;;;;;34.20;62.67;99837.47;30862239;28;20062;-75
2023/07/23 08:23:17;;;;;;;14.02;10.95;;;;;;;34.38;62.99;99857.09;30858759;28;20142;-77
2023/07/23 08:38:19;;;;;;;17.33;10.95;;;;;;;34.53;62.65;99862.44;30858497;28;20147;-75
2023/07/23 08:53:22;;;;;;;11.77;9.88;;;;;;;34.38;61.89;99886.00;30859037;28;20086;-76
2023/07/23 09:08:23;;;;;;;9.13;7.55;;;;;;;34.03;61.37;99891.06;30857100;28;20113;-75
2023/07/23 09:23:26;;;;;;;10.98;6.25;;;;;;;34.49;60.05;99898.75;30861055;28;20561;-75
2023/07/23 09:38:29;;;;;;;7.25;5.30;;;;;;;34.59;57.74;99864.94;30873534;28;20516;-75
2023/07/23 09:53:31;;;;;;;4.57;3.97;;;;;;;35.74;54.30;99887.38;30879917;28;20489;-75
2023/07/23 10:08:35;;;;;;;17.55;4.28;;;;;;;35.83;53.14;99894.34;30875387;28;20146;-74
2023/07/23 10:23:40;;;;;;;6.45;4.15;;;;;;;35.97;49.78;99886.84;30877271;28;20115;-77
2023/07/23 10:38:43;;;;;;;8.13;5.28;;;;;;;35.61;51.52;99884.31;30874263;28;20064;-77
2023/07/23 10:54:06;;;;;;;9.85;5.53;;;;;;;36.33;49.14;99888.63;30867829;28;20134;-76
2023/07/23 11:09:12;;;;;;;7.72;4.00;;;;;;;37.13;47.34;99880.38;30869462;28;20053;-75
2023/07/23 11:24:14;;;;;;;4.35;3.13;;;;;;;37.02;47.06;99875.44;30869874;28;20575;-75
2023/07/23 11:39:17;;;;;;;4.55;3.13;;;;;;;35.63;47.81;99870.34;30865383;28;20069;-76
2023/07/23 11:54:19;;;;;;;7.75;4.00;;;;;;;34.43;49.88;99870.16;30864608;28;20050;-75
2023/07/23 12:09:21;;;;;;;4.75;3.78;;;;;;;33.49;51.64;99871.44;30865121;28;20089;-77
2023/07/23 12:24:27;;;;;;;4.75;3.67;;;;;;;33.27;53.73;99880.19;30859393;28;20109;-75
2023/07/23 12:39:29;;;;;;;10.77;3.55;;;;;;;32.90;53.92;99882.09;30857924;28;20473;-76
2023/07/23 12:54:31;;;;;;;4.00;3.28;;;;;;;32.28;54.58;99893.19;30855730;28;20487;-76
2023/07/23 13:09:33;;;;;;;5.70;4.20;;;;;;;32.37;55.19;99894.59;30861302;28;20046;-77
2023/07/23 13:24:35;;;;;;;5.68;4.32;;;;;;;32.10;55.09;99894.47;30857353;28;20545;-75
2023/07/23 13:39:37;;;;;;;6.25;4.72;;;;;;;31.64;56.74;99903.19;30852817;28;20080;-76
2023/07/23 13:54:40;;;;;;;8.43;5.90;;;;;;;31.05;58.97;99909.22;30857003;28;20070;-75
2023/07/23 14:09:42;;;;;;;10.13;6.80;;;;;;;30.97;59.02;99908.47;30856282;28;20366;-75
2023/07/23 14:24:44;;;;;;;6.30;5.28;;;;;;;30.52;60.07;99926.84;30872904;28;20070;-76
2023/07/23 14:39:47;;;;;;;7.03;3.20;;;;;;;30.51;59.92;99935.81;30870674;28;20150;-76
2023/07/23 14:54:49;;;;;;;18.45;8.25;;;;;;;30.45;58.17;99966.09;30876003;28;20051;-74
2023/07/23 15:09:51;;;;;;;8.90;5.38;;;;;;;30.19;59.08;99965.16;30869030;28;20130;-75
2023/07/23 15:24:53;;;;;;;;;;;;;;;29.68;60.20;99976.38;30869606;28;20501;-74
2023/07/23 15:39:55;;;;;;;5.00;3.40;;;;;;;29.68;59.90;100000.81;30870339;28;20412;-77
2023/07/23 15:54:57;;;;;;;;;;;;;;;29.30;61.31;99997.81;30867819;28;20082;-76
2023/07/23 16:09:59;;;;;;;5.05;2.80;;;;;;;28.94;62.02;99989.41;30866462;28;19990;-74
2023/07/23 16:25:01;;;;;;;5.17;2.40;;;;;;;28.87;62.65;99992.91;30859355;28;20390;-75
2023/07/23 16:40:06;;;;;;;4.60;2.80;;;;;;;28.72;63.71;100007.47;30856868;28;20054;-75
2023/07/23 16:55:08;;;;;;;4.20;2.33;;;;;;;28.51;64.45;99999.88;30870948;28;20477;-76
2023/07/23 17:10:10;;;;;;;6.63;2.33;;;;;;;28.64;64.73;99989.91;30862320;28;20225;-75
2023/07/23 17:25:12;;;;;;;11.30;2.80;;;;;;;28.32;65.99;100009.75;30859960;28;20046;-76
2023/07/23 17:40:15;;;;;;;6.77;3.70;;;;;;;28.09;67.44;100021.41;30859464;28;20101;-77
2023/07/23 17:55:17;;;;;;;24.97;12.93;;;;;;;28.03;68.68;100034.72;30877262;28;20051;-77
2023/07/23 18:10:19;;;;;;;8.03;5.37;;;;;;;27.81;70.47;100040.81;30881076;28;20051;-75
2023/07/23 18:25:21;;;;;;;3.93;2.40;;;;;;;27.45;73.37;100038.44;30883438;28;20138;-77
2023/07/23 18:40:23;;;;;;;7.57;2.90;;;;;;;27.38;74.12;100044.69;30876029;28;20055;-80
2023/07/23 18:55:25;;;;;;;2.90;2.03;;;;;;;27.39;74.58;100056.59;30901713;28;20058;-76
2023/07/23 19:10:28;;;;;;;7.93;2.77;;;;;;;27.28;75.76;100045.63;30882814;28;20057;-79
2023/07/23 19:25:30;;;;;;;2.03;1.52;;;;;;;27.02;77.25;100047.13;30878279;28;20051;-78
2023/07/23 19:40:33;;;;;;;5.87;3.47;;;;;;;26.40;81.11;100046.63;30872813;28;20103;-79
2023/07/23 19:55:35;;;;;;;;;;;;;;;26.16;84.35;100053.78;30872851;28;20489;-76
2023/07/23 20:10:37;;;;;;;5.45;2.25;;;;;;;26.35;82.90;100047.44;30873147;28;19964;-78
2023/07/23 20:25:39;;;;;;;3.38;2.00;;;;;;;25.82;85.32;100063.84;30862824;28;20605;-76
2023/07/23 20:40:42;;;;;;;2.60;1.75;;;;;;;25.72;86.88;100066.25;30864315;28;20073;-78
2023/07/23 20:55:44;;;;;;;11.60;4.50;;;;;;;25.37;89.91;100069.13;30864146;28;20051;-79
2023/07/23 21:10:50;;;;;;;3.55;2.13;;;;;;;25.25;92.81;100068.50;30858483;28;20051;-77
2023/07/23 21:25:56;;;;;;;2.38;2.05;;;;;;;25.22;94.08;100085.47;30873043;28;20451;-76
2023/07/23 21:40:59;;;;;;;4.72;2.42;;;;;;;24.89;95.52;100087.25;30882719;28;20077;-75
2023/07/23 21:56:01;;;;;;;5.03;2.40;;;;;;;24.60;98.31;100094.28;30878324;28;20077;-76
2023/07/23 22:11:03;;;;;;;4.07;2.38;;;;;;;24.51;100.00;100086.28;30875245;28;20078;-75
2023/07/23 22:26:05;;;;;;;4.75;2.92;;;;;;;24.60;100.00;100080.41;30876972;28;20050;-74
2023/07/23 22:41:07;;;;;;;6.88;3.95;;;;;;;24.50;100.00;100073.66;30869826;28;20135;-74
2023/07/23 22:56:13;;;;;;;6.85;3.63;;;;;;;24.36;100.00;100069.22;30867896;28;20075;-75
2023/07/23 23:11:15;;;;;;;10.80;3.92;;;;;;;24.19;100.00;100079.63;30865599;28;20134;-75
2023/07/23 23:26:17;;;;;;;7.45;4.22;;;;;;;23.97;100.00;100072.94;30868216;28;20051;-75
2023/07/23 23:41:19;;;;;;;8.48;5.00;;;;;;;23.81;100.00;100071.00;30868957;28;20050;-74
2023/07/23 23:56:22;;;;;;;10.68;4.72;;;;;;;23.56;100.00;100052.72;30865553;28;20047;-75
